Time;durP1;ratioP1;P1;durP2;ratioP2;P2;SDS_P1;SDS_P2;PMS_P1;PMS_P2;Temp;Humidity;BMP_temperature;BMP_pressure;BME280_temperature;BME280_humidity;BME280_pressure;Samples;Min_cycle;Max_cycle;Signal;HPM_P1;HPM_P2
2022/10/24 00:01:13;;;;;;;6.88;2.17;;;17.30;99.90;;;;;;5047346;28;20239;-81
2022/10/24 00:03:41;;;;;;;5.22;2.08;;;17.40;99.90;;;;;;5047549;28;20191;-81
2022/10/24 00:06:11;;;;;;;3.13;1.90;;;17.30;99.90;;;;;;5043911;28;20212;-81
2022/10/24 00:08:40;;;;;;;5.75;2.10;;;17.40;99.90;;;;;;5043522;28;20205;-81
2022/10/24 00:11:09;;;;;;;6.68;2.60;;;17.40;99.90;;;;;;5060037;28;20623;-81
2022/10/24 00:13:37;;;;;;;6.65;2.60;;;17.40;99.90;;;;;;5055624;28;20226;-81
2022/10/24 00:16:05;;;;;;;4.10;2.42;;;17.50;99.90;;;;;;5054330;28;20199;-81
2022/10/24 00:18:34;;;;;;;6.65;2.63;;;17.50;99.90;;;;;;5049929;28;20687;-81
2022/10/24 00:21:02;;;;;;;4.70;2.22;;;17.50;99.90;;;;;;5055107;28;20214;-81
2022/10/24 00:23:30;;;;;;;3.60;2.30;;;17.40;99.90;;;;;;5055626;28;20206;-81
2022/10/24 00:26:00;;;;;;;5.95;2.50;;;17.50;99.90;;;;;;5056455;28;20198;-81
2022/10/24 00:28:28;;;;;;;6.93;2.90;;;17.50;99.90;;;;;;5048964;28;20203;-81
2022/10/24 00:30:56;;;;;;;4.20;2.50;;;17.50;99.90;;;;;;5053500;28;20237;-81
2022/10/24 00:33:24;;;;;;;5.50;2.70;;;17.60;99.90;;;;;;5046726;28;20210;-81
2022/10/24 00:35:53;;;;;;;5.57;3.17;;;17.70;99.90;;;;;;5069530;28;20210;-81
2022/10/24 00:38:21;;;;;;;5.55;3.03;;;17.70;99.90;;;;;;5042449;28;20202;-81
2022/10/24 00:40:48;;;;;;;6.15;2.75;;;17.70;99.90;;;;;;5050187;28;20222;-82
2022/10/24 00:43:17;;;;;;;9.18;3.20;;;17.70;99.90;;;;;;5051869;28;20644;-81
2022/10/24 00:45:49;;;;;;;6.80;2.80;;;17.60;99.90;;;;;;5050289;28;20202;-81
2022/10/24 00:48:22;;;;;;;8.48;3.25;;;17.60;99.90;;;;;;5052969;28;20205;-82
2022/10/24 00:50:57;;;;;;;7.47;3.40;;;17.70;99.90;;;;;;5051897;28;20260;-81
2022/10/24 00:53:26;;;;;;;4.93;2.75;;;17.70;99.90;;;;;;5054713;28;20221;-82
2022/10/24 00:55:56;;;;;;;4.95;3.05;;;17.70;99.90;;;;;;5049864;28;20199;-81
2022/10/24 00:58:27;;;;;;;8.70;3.50;;;17.60;99.90;;;;;;5051250;28;20205;-81
2022/10/24 01:00:55;;;;;;;5.55;3.05;;;17.60;99.90;;;;;;5046977;28;20226;-81
2022/10/24 01:03:23;;;;;;;5.63;3.35;;;17.60;99.90;;;;;;5052735;28;20190;-81
2022/10/24 01:06:09;;;;;;;5.95;3.33;;;17.60;99.90;;;;;;5051544;28;20194;-82
2022/10/24 01:08:43;;;;;;;6.57;3.15;;;17.70;99.90;;;;;;5048866;28;20201;-81
2022/10/24 01:11:20;;;;;;;7.28;3.25;;;17.70;99.90;;;;;;5052994;28;20210;-81
2022/10/24 01:13:56;;;;;;;6.53;3.67;;;17.70;99.90;;;;;;5056766;28;20659;-81
2022/10/24 01:16:29;;;;;;;5.57;3.53;;;17.70;99.90;;;;;;5051877;28;20198;-81
2022/10/24 01:19:08;;;;;;;6.25;2.78;;;17.80;99.90;;;;;;5053559;28;20194;-81
2022/10/24 01:21:43;;;;;;;7.60;3.00;;;17.80;99.90;;;;;;5054321;28;20583;-81
2022/10/24 01:24:37;;;;;;;3.35;2.58;;;17.90;99.90;;;;;;5055448;28;20190;-81
2022/10/24 01:27:29;;;;;;;4.70;2.70;;;17.90;99.90;;;;;;5044900;28;20199;-81
2022/10/24 01:30:04;;;;;;;5.70;2.38;;;17.90;99.90;;;;;;5053545;28;20217;-81
2022/10/24 01:32:38;;;;;;;8.50;2.50;;;17.90;99.90;;;;;;5055946;28;20220;-81
2022/10/24 01:35:17;;;;;;;4.43;2.22;;;17.90;99.90;;;;;;5055016;28;20694;-81
2022/10/24 01:37:51;;;;;;;4.70;2.60;;;17.90;99.90;;;;;;5054029;28;20198;-81
2022/10/24 01:40:23;;;;;;;3.85;2.35;;;17.90;99.90;;;;;;5047689;28;20187;-81
2022/10/24 01:42:53;;;;;;;4.38;2.25;;;17.90;99.90;;;;;;5051492;28;20197;-81
2022/10/24 01:45:28;;;;;;;5.18;2.15;;;17.90;99.90;;;;;;5051195;28;20209;-81
2022/10/24 01:47:59;;;;;;;4.07;1.95;;;17.90;99.90;;;;;;5052493;28;20686;-80
2022/10/24 01:50:28;;;;;;;5.15;2.20;;;17.90;99.90;;;;;;5047537;28;20222;-81
2022/10/24 01:52:58;;;;;;;6.38;2.25;;;17.90;99.90;;;;;;5053067;28;20198;-81
2022/10/24 01:55:26;;;;;;;3.03;1.90;;;17.90;99.90;;;;;;5052538;28;20191;-81
2022/10/24 01:57:53;;;;;;;4.18;1.98;;;17.80;99.90;;;;;;5050658;28;20556;-81
2022/10/24 02:00:23;;;;;;;5.72;2.42;;;17.90;99.90;;;;;;5047421;28;20202;-81
2022/10/24 02:02:55;;;;;;;6.80;3.10;;;17.90;99.90;;;;;;5045506;28;20190;-81
2022/10/24 02:05:27;;;;;;;4.82;2.40;;;17.90;99.90;;;;;;5041593;28;20195;-81
2022/10/24 02:07:57;;;;;;;6.38;2.22;;;17.90;99.90;;;;;;5043849;28;20198;-81
2022/10/24 02:10:29;;;;;;;8.75;2.22;;;18.00;99.90;;;;;;5054438;28;20231;-81
2022/10/24 02:13:02;;;;;;;4.75;2.00;;;18.00;99.90;;;;;;5049352;28;20206;-81
2022/10/24 02:15:36;;;;;;;5.68;2.38;;;18.00;99.90;;;;;;5049659;28;20198;-81
2022/10/24 02:18:04;;;;;;;10.40;3.28;;;18.10;99.90;;;;;;5045672;28;20193;-81
2022/10/24 02:20:36;;;;;;;5.10;2.33;;;18.10;99.90;;;;;;5047829;28;20217;-81
2022/10/24 02:23:10;;;;;;;6.25;2.38;;;18.00;99.90;;;;;;5046832;28;20194;-82
2022/10/24 02:25:43;;;;;;;6.93;2.00;;;18.10;99.90;;;;;;5062935;28;20198;-81
2022/10/24 02:28:14;;;;;;;6.85;2.35;;;18.00;99.90;;;;;;5052658;28;20206;-81
2022/10/24 02:30:47;;;;;;;5.93;2.20;;;18.10;99.90;;;;;;5047376;28;20214;-81
2022/10/24 02:33:15;;;;;;;5.90;2.17;;;18.10;99.90;;;;;;5049600;28;20214;-81
2022/10/24 02:35:45;;;;;;;4.00;2.10;;;18.00;99.90;;;;;;5049709;28;20194;-81
2022/10/24 02:38:17;;;;;;;4.43;2.40;;;17.90;99.90;;;;;;5049739;28;20198;-81
2022/10/24 02:40:47;;;;;;;6.40;2.05;;;18.00;99.90;;;;;;5051112;28;20210;-81
2022/10/24 02:43:16;;;;;;;4.60;2.20;;;18.00;99.90;;;;;;5046796;28;20201;-81
2022/10/24 02:45:45;;;;;;;4.57;2.00;;;18.00;99.90;;;;;;5047944;28;20195;-81
2022/10/24 02:48:16;;;;;;;5.80;2.10;;;18.00;99.90;;;;;;5049706;28;20209;-81
2022/10/24 02:50:44;;;;;;;3.97;1.88;;;18.00;99.90;;;;;;5048224;28;20218;-82
2022/10/24 02:53:14;;;;;;;4.00;1.85;;;18.00;99.90;;;;;;5042263;28;20213;-81
2022/10/24 02:55:42;;;;;;;3.85;1.73;;;18.00;99.90;;;;;;5047663;28;20734;-81
2022/10/24 02:58:09;;;;;;;4.55;2.00;;;18.00;99.90;;;;;;5044036;28;20214;-81
2022/10/24 03:00:37;;;;;;;7.05;2.55;;;18.00;99.90;;;;;;5049042;28;20221;-81
2022/10/24 03:03:06;;;;;;;3.47;1.63;;;18.00;99.90;;;;;;5051137;28;20564;-81
2022/10/24 03:05:33;;;;;;;3.33;1.58;;;18.10;99.90;;;;;;5063529;28;20209;-81
2022/10/24 03:08:01;;;;;;;4.85;1.65;;;18.10;99.90;;;;;;5053121;28;20194;-81
2022/10/24 03:10:29;;;;;;;3.30;2.03;;;18.10;99.90;;;;;;5050381;28;20229;-82
2022/10/24 03:12:56;;;;;;;5.20;1.50;;;18.10;99.90;;;;;;5052786;28;20199;-81
2022/10/24 03:15:24;;;;;;;2.83;1.60;;;18.10;99.90;;;;;;5051292;28;20222;-81
2022/10/24 03:17:51;;;;;;;5.07;1.95;;;18.10;99.90;;;;;;5052952;28;20205;-81
2022/10/24 03:20:20;;;;;;;6.53;2.15;;;18.10;99.90;;;;;;5053478;28;20205;-81
2022/10/24 03:22:48;;;;;;;5.05;1.88;;;18.10;99.90;;;;;;5052832;28;20214;-81
2022/10/24 03:25:15;;;;;;;7.20;1.95;;;18.10;99.90;;;;;;5049257;28;20209;-81
2022/10/24 03:27:43;;;;;;;4.95;2.00;;;18.10;99.90;;;;;;5052903;28;20567;-81
2022/10/24 03:30:11;;;;;;;2.78;1.70;;;18.10;99.90;;;;;;5055027;28;20202;-81
2022/10/24 03:32:39;;;;;;;4.53;1.80;;;18.10;99.90;;;;;;5049020;28;20205;-82
2022/10/24 03:35:09;;;;;;;3.75;1.63;;;18.10;99.90;;;;;;5059061;28;20201;-81
2022/10/24 03:37:38;;;;;;;5.68;2.00;;;18.10;99.90;;;;;;5048964;28;20203;-81
2022/10/24 03:40:06;;;;;;;4.35;1.80;;;18.10;99.90;;;;;;5049812;28;20201;-81
2022/10/24 03:42:34;;;;;;;5.05;1.67;;;18.00;99.90;;;;;;5051903;28;20202;-82
2022/10/24 03:45:02;;;;;;;7.40;2.45;;;18.00;99.90;;;;;;5051118;28;20202;-81
2022/10/24 03:47:29;;;;;;;6.07;2.00;;;18.10;99.90;;;;;;5052283;28;20210;-82
2022/10/24 03:49:57;;;;;;;4.55;2.10;;;18.00;99.90;;;;;;5052855;28;20199;-82
2022/10/24 03:52:24;;;;;;;6.75;2.28;;;18.00;99.90;;;;;;5064006;28;20222;-82
2022/10/24 03:54:53;;;;;;;2.88;1.70;;;18.00;99.90;;;;;;5059154;28;20225;-82
2022/10/24 03:57:21;;;;;;;6.05;1.88;;;17.90;99.90;;;;;;5061146;28;20277;-82
2022/10/24 03:59:48;;;;;;;3.42;1.70;;;17.90;99.90;;;;;;5057835;28;20203;-82
2022/10/24 04:02:19;;;;;;;5.20;1.65;;;18.00;99.90;;;;;;5072082;28;20702;-82
2022/10/24 04:04:46;;;;;;;6.57;2.30;;;18.00;99.90;;;;;;5066891;28;20191;-82
2022/10/24 04:07:17;;;;;;;3.28;2.10;;;18.00;99.90;;;;;;5064727;28;20202;-81
2022/10/24 04:09:44;;;;;;;2.58;1.48;;;17.90;99.90;;;;;;5053573;28;20203;-82
2022/10/24 04:12:13;;;;;;;4.50;2.15;;;17.90;99.90;;;;;;5061384;28;20225;-82
2022/10/24 04:14:41;;;;;;;4.25;1.98;;;17.90;99.90;;;;;;5061097;28;20214;-82
2022/10/24 04:17:08;;;;;;;7.15;1.80;;;17.90;99.90;;;;;;5062212;28;20202;-82
2022/10/24 04:19:36;;;;;;;6.15;2.60;;;17.90;99.90;;;;;;5060373;28;20217;-82
2022/10/24 04:22:03;;;;;;;2.95;1.63;;;17.90;99.90;;;;;;5060514;28;20214;-82
2022/10/24 04:24:31;;;;;;;3.53;2.22;;;17.80;99.90;;;;;;5058260;28;20194;-82
2022/10/24 04:26:58;;;;;;;4.93;1.70;;;17.80;99.90;;;;;;5078090;28;20201;-82
2022/10/24 04:29:27;;;;;;;6.72;2.20;;;17.80;99.90;;;;;;5063606;28;20649;-82
2022/10/24 04:31:55;;;;;;;3.38;1.42;;;17.80;99.90;;;;;;5062502;28;20221;-82
2022/10/24 04:34:22;;;;;;;6.70;2.33;;;17.80;99.90;;;;;;5062230;28;20213;-82
2022/10/24 04:36:50;;;;;;;5.30;1.73;;;17.80;99.90;;;;;;5057912;28;20202;-82
2022/10/24 04:39:18;;;;;;;5.85;2.15;;;17.70;99.90;;;;;;5061201;28;20198;-82
2022/10/24 04:41:46;;;;;;;4.57;2.00;;;17.70;99.90;;;;;;5057478;28;20684;-82
2022/10/24 04:44:13;;;;;;;6.07;2.10;;;17.60;99.90;;;;;;5064237;28;20190;-81
2022/10/24 04:46:42;;;;;;;4.80;2.00;;;17.60;99.90;;;;;;5059015;28;20206;-81
2022/10/24 04:49:10;;;;;;;5.30;2.10;;;17.60;99.90;;;;;;5054558;28;20202;-81
2022/10/24 04:51:37;;;;;;;4.50;1.60;;;17.60;99.90;;;;;;5060747;28;20218;-82
2022/10/24 04:54:06;;;;;;;6.43;1.80;;;17.60;99.90;;;;;;5051303;28;20210;-83
2022/10/24 04:56:34;;;;;;;6.47;2.25;;;17.60;99.90;;;;;;5061812;28;20212;-82
2022/10/24 04:59:01;;;;;;;6.18;1.85;;;17.50;99.90;;;;;;5063737;28;20194;-81
2022/10/24 05:01:29;;;;;;;4.32;1.48;;;17.50;99.90;;;;;;5058937;28;20233;-81
2022/10/24 05:03:58;;;;;;;4.25;1.80;;;17.50;99.90;;;;;;5055309;28;20210;-81
2022/10/24 05:06:25;;;;;;;4.50;1.67;;;17.50;99.90;;;;;;5063303;28;20231;-81
2022/10/24 05:08:56;;;;;;;5.28;2.00;;;17.50;99.90;;;;;;5058347;28;20206;-81
2022/10/24 05:11:23;;;;;;;4.28;1.77;;;17.50;99.90;;;;;;5068722;28;20234;-81
2022/10/24 05:13:51;;;;;;;6.50;2.05;;;17.40;99.90;;;;;;5054041;28;20190;-82
2022/10/24 05:16:18;;;;;;;4.65;1.90;;;17.50;99.90;;;;;;5053041;28;20229;-82
2022/10/24 05:18:46;;;;;;;6.50;2.00;;;17.50;99.90;;;;;;5040828;28;20198;-82
2022/10/24 05:21:18;;;;;;;4.18;1.65;;;17.50;99.90;;;;;;5053596;28;20223;-82
2022/10/24 05:23:49;;;;;;;5.22;2.00;;;17.50;99.90;;;;;;5051816;28;20194;-81
2022/10/24 05:26:17;;;;;;;5.20;2.28;;;17.50;99.90;;;;;;5055071;28;20205;-82
2022/10/24 05:28:44;;;;;;;2.92;1.63;;;17.50;99.90;;;;;;5066223;28;20264;-82
2022/10/24 05:31:12;;;;;;;3.67;1.85;;;17.40;99.90;;;;;;5061542;28;20206;-81
2022/10/24 05:33:39;;;;;;;4.15;1.80;;;17.40;99.90;;;;;;5062388;28;20684;-82
2022/10/24 05:36:07;;;;;;;3.70;1.88;;;17.40;99.90;;;;;;5062700;28;20218;-82
2022/10/24 05:38:36;;;;;;;4.93;1.48;;;17.30;99.90;;;;;;5062192;28;20227;-82
2022/10/24 05:41:04;;;;;;;4.10;1.60;;;17.30;99.90;;;;;;5054912;28;20249;-81
2022/10/24 05:43:31;;;;;;;5.13;1.50;;;17.30;99.90;;;;;;5060997;28;20210;-81
2022/10/24 05:45:59;;;;;;;6.30;1.90;;;17.30;99.90;;;;;;5056052;28;20217;-82
2022/10/24 05:48:26;;;;;;;4.53;1.60;;;17.30;99.90;;;;;;5057678;28;20203;-83
2022/10/24 05:50:57;;;;;;;2.50;1.52;;;17.30;99.90;;;;;;5052342;28;20229;-82
2022/10/24 05:53:24;;;;;;;7.32;1.73;;;17.30;99.90;;;;;;5063839;28;20233;-82
2022/10/24 05:56:24;;;;;;;5.07;1.85;;;17.30;99.90;;;;;;5053381;28;20207;-81
2022/10/24 05:58:54;;;;;;;5.70;1.92;;;17.20;99.90;;;;;;5057807;28;20195;-82
2022/10/24 06:01:28;;;;;;;3.78;1.58;;;17.20;99.90;;;;;;5048800;28;20236;-80
2022/10/24 06:03:58;;;;;;;5.30;1.60;;;17.20;99.90;;;;;;5072224;28;20665;-79
2022/10/24 06:06:26;;;;;;;4.22;1.70;;;17.20;99.90;;;;;;5057302;28;20194;-79
2022/10/24 06:08:54;;;;;;;5.30;1.70;;;17.20;99.90;;;;;;5057295;28;20667;-79
2022/10/24 06:11:23;;;;;;;3.92;2.03;;;17.20;99.90;;;;;;5051462;28;20236;-79
2022/10/24 06:13:50;;;;;;;3.65;1.92;;;17.20;99.90;;;;;;5050327;28;20201;-79
2022/10/24 06:16:26;;;;;;;5.70;1.60;;;17.20;99.90;;;;;;5053227;28;20205;-79
2022/10/24 06:18:53;;;;;;;3.30;1.58;;;17.10;99.90;;;;;;5050912;28;20194;-79
2022/10/24 06:21:21;;;;;;;6.38;2.55;;;17.10;99.90;;;;;;5051631;28;20715;-79
2022/10/24 06:23:48;;;;;;;3.92;1.70;;;17.20;99.90;;;;;;5042588;28;20207;-79
2022/10/24 06:26:16;;;;;;;2.13;1.45;;;17.20;99.90;;;;;;5050065;28;20195;-78
2022/10/24 06:28:45;;;;;;;5.07;1.58;;;17.20;99.90;;;;;;5052053;28;20271;-79
2022/10/24 06:31:12;;;;;;;6.22;1.75;;;17.30;99.90;;;;;;5047547;28;20219;-79
2022/10/24 06:33:40;;;;;;;4.38;1.30;;;17.30;99.90;;;;;;5045342;28;20217;-79
2022/10/24 06:36:11;;;;;;;4.18;1.42;;;17.30;99.90;;;;;;5049854;28;20210;-79
2022/10/24 06:38:38;;;;;;;4.70;1.42;;;17.30;99.90;;;;;;5042222;27;20581;-79
2022/10/24 06:41:07;;;;;;;5.45;1.75;;;17.20;99.90;;;;;;5089786;28;20217;-80
2022/10/24 06:43:35;;;;;;;5.72;1.63;;;17.20;99.90;;;;;;5086796;28;20217;-79
2022/10/24 06:46:07;;;;;;;4.82;1.50;;;17.30;99.90;;;;;;5088467;28;20200;-79
2022/10/24 06:48:35;;;;;;;3.95;1.42;;;17.20;99.90;;;;;;5087757;28;20570;-79
2022/10/24 06:51:02;;;;;;;4.57;1.30;;;17.20;99.90;;;;;;5089382;28;20213;-79
2022/10/24 06:53:33;;;;;;;4.38;1.35;;;17.30;99.90;;;;;;5091109;28;20193;-80
2022/10/24 06:56:01;;;;;;;4.32;1.45;;;17.20;99.90;;;;;;5093782;28;20213;-79
2022/10/24 06:58:32;;;;;;;3.28;1.50;;;17.30;99.90;;;;;;5094979;28;20199;-78
2022/10/24 07:00:59;;;;;;;3.95;1.60;;;17.30;99.90;;;;;;5089760;28;20232;-78
2022/10/24 07:03:28;;;;;;;4.22;1.35;;;17.50;99.90;;;;;;5081443;28;20205;-77
2022/10/24 07:05:56;;;;;;;5.22;1.40;;;17.70;99.90;;;;;;5089835;28;20193;-78
2022/10/24 07:08:23;;;;;;;3.72;1.45;;;17.80;99.90;;;;;;5086772;28;20193;-79
2022/10/24 07:10:51;;;;;;;4.00;1.10;;;17.50;99.90;;;;;;5088034;28;20215;-78
2022/10/24 07:13:18;;;;;;;3.58;1.20;;;17.50;99.90;;;;;;5094867;28;20204;-79
2022/10/24 07:15:45;;;;;;;4.88;1.30;;;17.40;99.90;;;;;;5087460;28;20229;-79
2022/10/24 07:18:15;;;;;;;4.30;1.40;;;17.40;99.90;;;;;;5091212;28;20200;-78
2022/10/24 07:20:43;;;;;;;4.70;1.17;;;17.50;99.90;;;;;;5088348;28;20216;-78
2022/10/24 07:23:31;;;;;;;3.85;1.35;;;17.50;99.90;;;;;;5095068;28;20207;-79
2022/10/24 07:26:02;;;;;;;2.33;1.38;;;17.50;99.90;;;;;;5095462;28;20197;-78
2022/10/24 07:28:29;;;;;;;3.30;1.27;;;17.60;99.90;;;;;;5095006;28;20192;-79
2022/10/24 07:30:57;;;;;;;4.95;1.48;;;17.60;99.90;;;;;;5094313;28;20209;-78
2022/10/24 07:33:24;;;;;;;3.38;1.42;;;17.60;99.90;;;;;;5082731;28;20201;-78
2022/10/24 07:35:53;;;;;;;7.70;1.20;;;17.70;99.90;;;;;;5097506;28;20213;-78
2022/10/24 07:38:21;;;;;;;3.22;1.38;;;17.70;99.90;;;;;;5098950;28;20188;-79
2022/10/24 07:40:49;;;;;;;3.92;1.13;;;17.80;99.90;;;;;;5096764;28;20235;-79
2022/10/24 07:43:17;;;;;;;3.33;1.23;;;17.70;99.90;;;;;;5098102;28;20205;-79
2022/10/24 07:45:45;;;;;;;2.17;1.05;;;17.70;99.90;;;;;;5094452;28;20201;-78
2022/10/24 07:48:12;;;;;;;3.88;1.05;;;17.70;99.90;;;;;;5097194;28;20678;-79
2022/10/24 07:50:45;;;;;;;6.55;1.70;;;17.70;99.90;;;;;;5099956;28;20577;-79
2022/10/24 07:53:15;;;;;;;2.90;1.35;;;17.70;99.90;;;;;;5097675;28;20193;-79
2022/10/24 07:55:43;;;;;;;3.03;1.30;;;17.60;99.90;;;;;;5099624;28;20201;-78
2022/10/24 07:58:11;;;;;;;2.25;1.10;;;17.60;99.90;;;;;;5084685;28;20198;-79
2022/10/24 08:00:39;;;;;;;3.17;1.30;;;17.60;99.90;;;;;;5085500;28;20220;-78
2022/10/24 08:03:06;;;;;;;3.55;1.33;;;17.60;99.90;;;;;;5097318;28;20200;-79
2022/10/24 08:05:33;;;;;;;6.03;1.50;;;17.60;99.90;;;;;;5095241;28;20194;-79
2022/10/24 08:08:01;;;;;;;6.05;1.35;;;17.60;99.90;;;;;;5097608;28;20201;-78
2022/10/24 08:10:29;;;;;;;2.58;1.13;;;17.60;99.90;;;;;;5095286;28;20240;-78
2022/10/24 08:12:57;;;;;;;3.80;1.45;;;17.60;99.90;;;;;;5089231;28;20208;-79
2022/10/24 08:15:28;;;;;;;4.03;1.23;;;17.60;99.90;;;;;;5095836;28;20291;-78
2022/10/24 08:17:59;;;;;;;3.42;1.15;;;17.60;99.90;;;;;;5094905;28;20201;-79
2022/10/24 08:20:34;;;;;;;5.47;1.20;;;17.70;99.90;;;;;;5091153;28;20216;-79
2022/10/24 08:23:02;;;;;;;4.32;1.13;;;17.70;99.90;;;;;;5090588;28;20196;-78
2022/10/24 08:25:31;;;;;;;4.18;1.52;;;17.70;99.90;;;;;;5088141;28;20663;-78
2022/10/24 08:27:58;;;;;;;4.40;1.58;;;17.70;99.90;;;;;;5094288;28;20193;-79
2022/10/24 08:30:26;;;;;;;4.63;1.05;;;17.70;99.90;;;;;;5082909;28;20210;-79
2022/10/24 08:32:53;;;;;;;3.30;1.80;;;17.70;99.90;;;;;;5093145;28;20200;-79
2022/10/24 08:35:21;;;;;;;3.72;1.00;;;17.70;99.90;;;;;;5094807;28;20205;-78
2022/10/24 08:37:55;;;;;;;5.07;1.58;;;17.70;99.90;;;;;;5092163;28;20231;-78
2022/10/24 08:40:22;;;;;;;3.72;1.10;;;17.70;99.90;;;;;;5091607;28;20211;-78
2022/10/24 08:42:51;;;;;;;2.55;1.45;;;17.70;99.90;;;;;;5091134;28;20197;-78
2022/10/24 08:45:26;;;;;;;3.38;1.38;;;17.70;99.90;;;;;;5091144;28;20197;-78
2022/10/24 08:48:02;;;;;;;4.30;1.35;;;17.80;99.90;;;;;;5088310;28;20193;-78
2022/10/24 08:50:32;;;;;;;8.07;1.67;;;17.80;99.90;;;;;;5082612;28;20223;-79
2022/10/24 08:53:04;;;;;;;6.68;1.60;;;17.80;99.90;;;;;;5090126;28;20200;-79
2022/10/24 08:55:37;;;;;;;4.05;1.55;;;17.80;99.90;;;;;;5087472;28;20194;-78
2022/10/24 08:58:07;;;;;;;2.95;1.60;;;17.80;99.90;;;;;;5092890;28;20216;-77
2022/10/24 09:00:40;;;;;;;6.70;1.40;;;17.80;99.90;;;;;;5085460;28;20228;-77
2022/10/24 09:03:14;;;;;;;5.15;1.50;;;17.70;99.90;;;;;;5089829;28;20208;-77
2022/10/24 09:05:45;;;;;;;4.72;1.77;;;17.70;99.90;;;;;;5093328;28;20212;-77
2022/10/24 09:08:22;;;;;;;6.45;1.83;;;17.70;99.90;;;;;;5092684;28;20197;-77
2022/10/24 09:11:03;;;;;;;6.63;1.77;;;17.70;99.90;;;;;;5084133;28;20228;-77
2022/10/24 09:13:39;;;;;;;4.22;1.23;;;17.70;99.90;;;;;;5086637;28;20204;-76
2022/10/24 09:16:17;;;;;;;3.30;1.20;;;17.60;99.90;;;;;;5088044;28;20228;-76
2022/10/24 09:18:53;;;;;;;3.85;1.48;;;17.70;99.90;;;;;;5088666;28;20181;-76
2022/10/24 09:21:22;;;;;;;6.05;1.40;;;17.70;99.90;;;;;;5087495;28;20220;-76
2022/10/24 09:23:51;;;;;;;4.57;1.75;;;17.70;99.90;;;;;;5089861;28;20211;-76
2022/10/24 09:26:47;;;;;;;;;;;;;;;;;;;;;
2022/10/24 09:35:51;;;;;;;9.32;1.92;;;17.60;99.90;;;;;;5088764;28;20548;-76
2022/10/24 09:38:42;;;;;;;5.47;1.42;;;17.60;99.90;;;;;;5089442;28;20209;-76
2022/10/24 09:41:24;;;;;;;4.32;1.60;;;17.60;99.90;;;;;;5082764;28;20224;-77
2022/10/24 09:44:03;;;;;;;4.82;1.60;;;17.60;99.90;;;;;;5086610;28;20188;-78
2022/10/24 09:47:22;;;;;;;3.15;1.33;;;17.70;99.90;;;;;;5087581;28;20192;-76
2022/10/24 09:49:57;;;;;;;3.78;1.23;;;17.60;99.90;;;;;;5081387;28;20193;-76
2022/10/24 09:52:27;;;;;;;3.97;1.40;;;17.60;99.90;;;;;;5080846;28;20216;-76
2022/10/24 09:55:16;;;;;;;10.02;1.90;;;17.60;99.90;;;;;;5089261;28;20198;-75
2022/10/24 09:57:44;;;;;;;4.57;1.45;;;17.70;99.90;;;;;;5091261;28;20571;-76
2022/10/24 10:00:22;;;;;;;6.43;1.88;;;17.70;99.90;;;;;;5092724;28;20566;-76
2022/10/24 10:03:03;;;;;;;4.25;1.23;;;17.80;99.90;;;;;;5090252;28;20200;-76
2022/10/24 10:05:43;;;;;;;5.28;1.67;;;17.80;99.90;;;;;;5086677;28;20200;-76
2022/10/24 10:08:16;;;;;;;6.43;1.55;;;17.80;99.90;;;;;;5088179;28;20196;-76
2022/10/24 10:10:43;;;;;;;7.45;1.65;;;17.80;99.90;;;;;;5084163;28;20217;-76
2022/10/24 10:13:23;;;;;;;3.05;1.52;;;17.80;99.90;;;;;;5090334;28;20184;-75
2022/10/24 10:15:53;;;;;;;3.17;1.27;;;17.90;99.90;;;;;;5085241;28;20197;-76
2022/10/24 10:18:26;;;;;;;6.75;1.70;;;17.90;99.90;;;;;;5091509;28;20212;-76
2022/10/24 10:21:09;;;;;;;3.25;0.98;;;18.00;99.90;;;;;;5081964;28;20220;-76
2022/10/24 10:23:40;;;;;;;6.07;1.65;;;17.90;99.90;;;;;;5083198;28;20208;-76
2022/10/24 10:26:17;;;;;;;5.88;1.40;;;17.90;99.90;;;;;;5090219;28;20734;-76
2022/10/24 10:29:01;;;;;;;6.22;1.98;;;17.90;99.90;;;;;;5086870;28;20196;-76
2022/10/24 10:31:38;;;;;;;9.38;1.90;;;17.90;99.90;;;;;;5087100;28;20222;-75
2022/10/24 10:34:17;;;;;;;7.95;1.95;;;17.90;99.90;;;;;;5087385;28;20196;-76
2022/10/24 10:37:00;;;;;;;7.85;1.52;;;18.00;99.90;;;;;;5087323;28;20207;-76
2022/10/24 10:39:45;;;;;;;3.58;0.93;;;18.00;99.90;;;;;;5086225;28;20298;-76
2022/10/24 10:42:17;;;;;;;4.43;1.45;;;18.00;99.90;;;;;;5088499;28;20686;-76
2022/10/24 10:44:54;;;;;;;4.85;1.35;;;18.00;99.90;;;;;;5082128;28;20198;-76
2022/10/24 10:47:35;;;;;;;4.97;1.58;;;18.10;99.90;;;;;;5089013;28;20189;-76
2022/10/24 10:50:29;;;;;;;7.40;1.38;;;18.10;99.90;;;;;;5089664;28;20193;-76
2022/10/24 10:53:05;;;;;;;4.35;1.40;;;18.10;99.90;;;;;;5084847;28;20189;-76
2022/10/24 10:55:45;;;;;;;5.40;1.45;;;18.10;99.90;;;;;;5084167;28;20193;-76
2022/10/24 10:58:22;;;;;;;6.97;1.60;;;18.10;99.90;;;;;;5083308;28;20212;-76
2022/10/24 11:00:56;;;;;;;3.75;1.35;;;18.10;99.90;;;;;;5087254;28;20228;-76
2022/10/24 11:03:37;;;;;;;6.93;1.88;;;18.10;99.90;;;;;;5082747;28;20200;-76
2022/10/24 11:06:16;;;;;;;4.78;1.42;;;18.10;99.90;;;;;;5085451;28;20197;-77
2022/10/24 11:09:10;;;;;;;7.07;1.80;;;18.00;99.90;;;;;;5089966;28;20200;-76
2022/10/24 11:11:42;;;;;;;4.65;1.60;;;18.00;99.90;;;;;;5060584;28;20568;-76
2022/10/24 11:14:28;;;;;;;3.92;1.25;;;18.00;99.90;;;;;;5087276;28;20212;-76
2022/10/24 11:17:01;;;;;;;6.07;1.60;;;18.00;99.90;;;;;;5079495;28;20208;-77
2022/10/24 11:19:33;;;;;;;4.25;1.50;;;18.00;99.90;;;;;;5096011;28;20213;-76
2022/10/24 11:22:05;;;;;;;6.38;1.63;;;18.00;99.90;;;;;;5082602;28;20205;-76
2022/10/24 11:24:41;;;;;;;5.78;1.60;;;18.00;99.90;;;;;;5074335;28;20197;-76
2022/10/24 11:27:20;;;;;;;4.80;1.40;;;18.00;99.90;;;;;;5082214;28;20205;-76
2022/10/24 11:30:02;;;;;;;5.18;1.33;;;18.00;99.90;;;;;;5079693;28;20220;-76
2022/10/24 11:32:36;;;;;;;4.63;1.35;;;18.00;99.90;;;;;;5081992;28;20217;-76
2022/10/24 11:35:16;;;;;;;6.72;1.83;;;18.10;99.90;;;;;;5092440;28;20195;-76
2022/10/24 11:37:47;;;;;;;5.63;1.35;;;18.10;99.90;;;;;;5081099;28;20219;-76
2022/10/24 11:40:19;;;;;;;6.15;1.50;;;18.10;99.90;;;;;;5077588;28;20204;-76
2022/10/24 11:42:52;;;;;;;4.95;1.60;;;18.10;99.90;;;;;;5081258;28;20201;-76
2022/10/24 11:45:24;;;;;;;7.07;2.00;;;18.30;99.90;;;;;;5086694;28;20208;-76
2022/10/24 11:48:09;;;;;;;6.78;1.33;;;18.30;99.90;;;;;;5090526;28;20209;-76
2022/10/24 11:50:42;;;;;;;6.88;1.40;;;18.20;99.90;;;;;;5079789;28;20232;-76
2022/10/24 11:53:44;;;;;;;4.72;1.60;;;18.20;99.90;;;;;;5080561;28;20201;-76
2022/10/24 11:56:19;;;;;;;4.38;1.38;;;18.10;99.90;;;;;;5086824;28;20204;-76
2022/10/24 11:58:54;;;;;;;4.70;1.60;;;18.00;99.90;;;;;;5083578;28;20213;-76
2022/10/24 12:01:53;;;;;;;4.97;1.30;;;18.00;99.90;;;;;;5077319;28;20229;-76
2022/10/24 12:04:52;;;;;;;6.40;1.88;;;17.90;99.90;;;;;;5080967;28;20201;-76
2022/10/24 12:07:51;;;;;;;5.68;2.22;;;17.90;99.90;;;;;;5089209;28;20715;-76
2022/10/24 12:10:44;;;;;;;6.78;1.50;;;18.00;99.90;;;;;;5089687;28;20206;-76
2022/10/24 12:13:26;;;;;;;6.05;1.48;;;17.90;99.90;;;;;;5083819;28;20208;-76
2022/10/24 12:16:00;;;;;;;7.95;1.70;;;17.90;99.90;;;;;;5085007;28;20208;-75
2022/10/24 12:18:32;;;;;;;7.43;1.75;;;17.90;99.90;;;;;;5102693;28;20222;-75
2022/10/24 12:21:04;;;;;;;5.95;1.85;;;17.90;99.90;;;;;;5093495;28;20220;-75
2022/10/24 12:23:32;;;;;;;8.43;1.85;;;17.90;99.90;;;;;;5091252;28;20204;-75
2022/10/24 12:26:08;;;;;;;5.80;1.83;;;17.90;99.90;;;;;;5090134;28;20217;-75
2022/10/24 12:28:37;;;;;;;7.88;1.52;;;17.90;99.90;;;;;;5083760;28;20193;-75
2022/10/24 12:31:11;;;;;;;4.47;1.30;;;17.90;99.90;;;;;;5084811;28;20224;-75
2022/10/24 12:33:39;;;;;;;3.13;1.40;;;17.80;99.90;;;;;;5083674;28;20204;-75
2022/10/24 12:36:07;;;;;;;5.07;2.15;;;17.80;99.90;;;;;;5088681;28;20193;-75
2022/10/24 12:39:08;;;;;;;5.78;1.67;;;17.70;99.90;;;;;;5081764;28;20587;-76
2022/10/24 12:41:39;;;;;;;4.97;1.45;;;17.70;99.90;;;;;;5082856;28;20213;-76
2022/10/24 12:44:50;;;;;;;5.45;1.58;;;17.70;99.90;;;;;;5083997;28;20579;-76
2022/10/24 12:47:32;;;;;;;6.05;1.25;;;17.70;99.90;;;;;;5090086;28;20690;-76
2022/10/24 12:50:15;;;;;;;7.47;1.85;;;17.60;99.90;;;;;;5103109;28;20640;-76
2022/10/24 12:53:03;;;;;;;7.53;1.67;;;17.70;99.90;;;;;;5088109;28;20212;-76
2022/10/24 12:55:56;;;;;;;4.07;1.27;;;17.70;99.90;;;;;;5077641;28;20214;-76
2022/10/24 12:58:29;;;;;;;5.07;1.75;;;17.60;99.90;;;;;;5070600;28;20213;-76
2022/10/24 13:00:58;;;;;;;5.03;1.50;;;17.60;99.90;;;;;;5085153;28;20236;-76
2022/10/24 13:03:45;;;;;;;8.10;1.77;;;17.40;99.90;;;;;;5086055;28;20287;-76
2022/10/24 13:06:21;;;;;;;6.15;1.58;;;17.20;99.90;;;;;;5089787;28;20208;-76
2022/10/24 13:09:02;;;;;;;6.07;1.90;;;17.10;99.90;;;;;;5091685;28;20196;-76
2022/10/24 13:11:43;;;;;;;4.22;1.45;;;17.20;99.90;;;;;;5086865;28;20229;-76
2022/10/24 13:14:37;;;;;;;4.95;1.38;;;17.20;99.90;;;;;;5080894;28;20211;-76
2022/10/24 13:17:12;;;;;;;5.25;1.98;;;17.30;99.90;;;;;;5081861;28;20673;-76
2022/10/24 13:19:40;;;;;;;5.25;1.75;;;17.30;99.90;;;;;;5078324;28;20213;-75
2022/10/24 13:22:27;;;;;;;5.20;1.65;;;17.30;99.90;;;;;;5087327;28;20212;-75